sensor_id;sensor_type;location;lat;lon;timestamp;P1;durP1;ratioP1;P2;durP2;ratioP2
44516;SDS011;30223;17.182;-96.766;2023-03-25T00:01:34;11.77;;;5.30;;
44516;SDS011;30223;17.182;-96.766;2023-03-25T00:04:02;8.63;;;4.45;;
44516;SDS011;30223;17.182;-96.766;2023-03-25T00:06:32;12.05;;;4.32;;
44516;SDS011;30223;17.182;-96.766;2023-03-25T00:08:59;6.05;;;4.07;;
44516;SDS011;30223;17.182;-96.766;2023-03-25T00:11:26;9.10;;;4.88;;
44516;SDS011;30223;17.182;-96.766;2023-03-25T00:13:53;8.18;;;4.40;;
44516;SDS011;30223;17.182;-96.766;2023-03-25T00:16:20;7.00;;;4.07;;
44516;SDS011;30223;17.182;-96.766;2023-03-25T00:18:47;7.32;;;3.63;;
44516;SDS011;30223;17.182;-96.766;2023-03-25T00:21:14;4.43;;;3.53;;
44516;SDS011;30223;17.182;-96.766;2023-03-25T00:23:43;6.82;;;3.17;;
44516;SDS011;30223;17.182;-96.766;2023-03-25T00:26:10;5.25;;;4.03;;
44516;SDS011;30223;17.182;-96.766;2023-03-25T00:28:37;6.72;;;3.05;;
44516;SDS011;30223;17.182;-96.766;2023-03-25T00:31:05;5.45;;;3.63;;
44516;SDS011;30223;17.182;-96.766;2023-03-25T00:33:36;6.30;;;3.63;;
44516;SDS011;30223;17.182;-96.766;2023-03-25T00:36:06;7.25;;;4.15;;
44516;SDS011;30223;17.182;-96.766;2023-03-25T00:38:33;5.38;;;4.03;;
44516;SDS011;30223;17.182;-96.766;2023-03-25T00:41:12;8.23;;;3.60;;
44516;SDS011;30223;17.182;-96.766;2023-03-25T00:43:47;5.10;;;3.00;;
44516;SDS011;30223;17.182;-96.766;2023-03-25T00:46:14;7.70;;;2.97;;
44516;SDS011;30223;17.182;-96.766;2023-03-25T00:48:41;5.68;;;3.40;;
44516;SDS011;30223;17.182;-96.766;2023-03-25T00:51:08;9.50;;;3.45;;
44516;SDS011;30223;17.182;-96.766;2023-03-25T00:53:38;5.20;;;2.83;;
44516;SDS011;30223;17.182;-96.766;2023-03-25T00:56:05;8.98;;;3.25;;
44516;SDS011;30223;17.182;-96.766;2023-03-25T00:58:32;4.35;;;2.90;;
44516;SDS011;30223;17.182;-96.766;2023-03-25T01:00:59;3.65;;;3.00;;
44516;SDS011;30223;17.182;-96.766;2023-03-25T01:03:27;4.87;;;2.50;;
44516;SDS011;30223;17.182;-96.766;2023-03-25T01:05:53;5.78;;;2.88;;
44516;SDS011;30223;17.182;-96.766;2023-03-25T01:08:22;3.47;;;2.92;;
44516;SDS011;30223;17.182;-96.766;2023-03-25T01:10:50;3.47;;;3.08;;
44516;SDS011;30223;17.182;-96.766;2023-03-25T01:15:45;4.97;;;2.38;;
44516;SDS011;30223;17.182;-96.766;2023-03-25T01:18:12;5.13;;;2.80;;
44516;SDS011;30223;17.182;-96.766;2023-03-25T01:20:40;3.47;;;2.33;;
44516;SDS011;30223;17.182;-96.766;2023-03-25T01:23:06;3.83;;;2.53;;
44516;SDS011;30223;17.182;-96.766;2023-03-25T01:25:36;5.75;;;3.00;;
44516;SDS011;30223;17.182;-96.766;2023-03-25T01:28:03;4.75;;;3.17;;
44516;SDS011;30223;17.182;-96.766;2023-03-25T01:30:30;10.07;;;4.30;;
44516;SDS011;30223;17.182;-96.766;2023-03-25T01:32:58;5.18;;;2.45;;
44516;SDS011;30223;17.182;-96.766;2023-03-25T01:35:24;6.13;;;2.60;;
44516;SDS011;30223;17.182;-96.766;2023-03-25T01:37:51;3.10;;;2.80;;
44516;SDS011;30223;17.182;-96.766;2023-03-25T01:40:19;6.10;;;2.70;;
44516;SDS011;30223;17.182;-96.766;2023-03-25T01:42:48;6.32;;;3.22;;
44516;SDS011;30223;17.182;-96.766;2023-03-25T01:45:20;3.67;;;2.38;;
44516;SDS011;30223;17.182;-96.766;2023-03-25T01:47:53;3.15;;;2.70;;
44516;SDS011;30223;17.182;-96.766;2023-03-25T01:50:25;4.90;;;2.42;;
44516;SDS011;30223;17.182;-96.766;2023-03-25T01:52:53;8.57;;;2.90;;
44516;SDS011;30223;17.182;-96.766;2023-03-25T01:55:23;6.97;;;2.92;;
44516;SDS011;30223;17.182;-96.766;2023-03-25T01:57:52;4.70;;;3.00;;
44516;SDS011;30223;17.182;-96.766;2023-03-25T02:00:21;3.47;;;2.47;;
44516;SDS011;30223;17.182;-96.766;2023-03-25T02:05:20;3.17;;;2.53;;
44516;SDS011;30223;17.182;-96.766;2023-03-25T02:08:00;4.22;;;2.67;;
44516;SDS011;30223;17.182;-96.766;2023-03-25T02:10:30;7.38;;;3.35;;
44516;SDS011;30223;17.182;-96.766;2023-03-25T02:13:01;5.70;;;2.72;;
44516;SDS011;30223;17.182;-96.766;2023-03-25T02:15:28;3.90;;;2.15;;
44516;SDS011;30223;17.182;-96.766;2023-03-25T02:18:06;2.53;;;2.15;;
44516;SDS011;30223;17.182;-96.766;2023-03-25T02:24:13;4.50;;;2.40;;
44516;SDS011;30223;17.182;-96.766;2023-03-25T02:38:23;4.07;;;3.13;;
44516;SDS011;30223;17.182;-96.766;2023-03-25T02:43:31;7.50;;;2.80;;
44516;SDS011;30223;17.182;-96.766;2023-03-25T02:46:11;3.25;;;2.60;;
44516;SDS011;30223;17.182;-96.766;2023-03-25T02:48:43;3.47;;;3.00;;
44516;SDS011;30223;17.182;-96.766;2023-03-25T02:51:39;5.07;;;2.75;;
44516;SDS011;30223;17.182;-96.766;2023-03-25T02:54:14;7.75;;;3.65;;
44516;SDS011;30223;17.182;-96.766;2023-03-25T02:56:43;4.13;;;2.45;;
44516;SDS011;30223;17.182;-96.766;2023-03-25T02:59:13;4.45;;;3.22;;
44516;SDS011;30223;17.182;-96.766;2023-03-25T03:01:43;2.97;;;2.45;;
44516;SDS011;30223;17.182;-96.766;2023-03-25T03:04:14;9.32;;;2.80;;
44516;SDS011;30223;17.182;-96.766;2023-03-25T03:06:41;8.20;;;3.10;;
44516;SDS011;30223;17.182;-96.766;2023-03-25T03:17:20;5.80;;;3.45;;
44516;SDS011;30223;17.182;-96.766;2023-03-25T03:20:17;7.35;;;3.20;;
44516;SDS011;30223;17.182;-96.766;2023-03-25T03:22:58;3.25;;;2.80;;
44516;SDS011;30223;17.182;-96.766;2023-03-25T03:25:36;4.10;;;3.15;;
44516;SDS011;30223;17.182;-96.766;2023-03-25T03:28:26;5.22;;;3.50;;
44516;SDS011;30223;17.182;-96.766;2023-03-25T03:31:04;4.80;;;3.10;;
44516;SDS011;30223;17.182;-96.766;2023-03-25T03:36:12;6.50;;;2.90;;
44516;SDS011;30223;17.182;-96.766;2023-03-25T03:38:44;9.65;;;3.40;;
44516;SDS011;30223;17.182;-96.766;2023-03-25T03:41:19;8.15;;;3.15;;
44516;SDS011;30223;17.182;-96.766;2023-03-25T03:44:07;6.28;;;3.20;;
44516;SDS011;30223;17.182;-96.766;2023-03-25T03:46:40;6.05;;;2.70;;
44516;SDS011;30223;17.182;-96.766;2023-03-25T03:49:27;5.88;;;2.90;;
44516;SDS011;30223;17.182;-96.766;2023-03-25T03:52:05;3.47;;;2.90;;
44516;SDS011;30223;17.182;-96.766;2023-03-25T03:54:37;4.07;;;2.80;;
44516;SDS011;30223;17.182;-96.766;2023-03-25T03:57:12;7.22;;;3.65;;
44516;SDS011;30223;17.182;-96.766;2023-03-25T03:59:48;10.65;;;3.00;;
44516;SDS011;30223;17.182;-96.766;2023-03-25T04:02:29;3.60;;;2.85;;
44516;SDS011;30223;17.182;-96.766;2023-03-25T04:05:08;7.60;;;2.80;;
44516;SDS011;30223;17.182;-96.766;2023-03-25T04:07:44;9.50;;;3.25;;
44516;SDS011;30223;17.182;-96.766;2023-03-25T04:10:26;4.43;;;3.35;;
44516;SDS011;30223;17.182;-96.766;2023-03-25T04:12:59;6.47;;;3.13;;
44516;SDS011;30223;17.182;-96.766;2023-03-25T04:15:30;6.50;;;3.50;;
44516;SDS011;30223;17.182;-96.766;2023-03-25T04:17:56;7.38;;;3.08;;
44516;SDS011;30223;17.182;-96.766;2023-03-25T04:20:24;4.25;;;3.30;;
44516;SDS011;30223;17.182;-96.766;2023-03-25T04:22:53;5.50;;;3.55;;
44516;SDS011;30223;17.182;-96.766;2023-03-25T04:25:20;5.72;;;2.72;;
44516;SDS011;30223;17.182;-96.766;2023-03-25T04:27:49;10.10;;;4.00;;
44516;SDS011;30223;17.182;-96.766;2023-03-25T04:30:18;6.85;;;2.70;;
44516;SDS011;30223;17.182;-96.766;2023-03-25T04:32:45;5.80;;;3.15;;
44516;SDS011;30223;17.182;-96.766;2023-03-25T04:35:13;5.20;;;3.63;;
44516;SDS011;30223;17.182;-96.766;2023-03-25T04:37:44;14.77;;;4.85;;
44516;SDS011;30223;17.182;-96.766;2023-03-25T04:42:43;9.50;;;2.92;;
44516;SDS011;30223;17.182;-96.766;2023-03-25T04:45:12;5.30;;;3.10;;
44516;SDS011;30223;17.182;-96.766;2023-03-25T04:47:41;9.13;;;3.67;;
44516;SDS011;30223;17.182;-96.766;2023-03-25T04:52:46;4.03;;;2.60;;
44516;SDS011;30223;17.182;-96.766;2023-03-25T04:55:17;3.63;;;3.08;;
44516;SDS011;30223;17.182;-96.766;2023-03-25T04:57:45;6.75;;;2.88;;
44516;SDS011;30223;17.182;-96.766;2023-03-25T05:00:14;4.45;;;2.55;;
44516;SDS011;30223;17.182;-96.766;2023-03-25T05:02:45;7.30;;;3.45;;
44516;SDS011;30223;17.182;-96.766;2023-03-25T05:05:13;4.68;;;2.58;;
44516;SDS011;30223;17.182;-96.766;2023-03-25T05:07:45;3.30;;;2.58;;
44516;SDS011;30223;17.182;-96.766;2023-03-25T05:10:19;4.78;;;2.50;;
44516;SDS011;30223;17.182;-96.766;2023-03-25T05:15:15;7.32;;;2.60;;
44516;SDS011;30223;17.182;-96.766;2023-03-25T05:17:42;4.50;;;3.10;;
44516;SDS011;30223;17.182;-96.766;2023-03-25T05:20:09;6.00;;;2.88;;
44516;SDS011;30223;17.182;-96.766;2023-03-25T05:22:38;3.83;;;3.22;;
44516;SDS011;30223;17.182;-96.766;2023-03-25T05:25:06;3.92;;;2.90;;
44516;SDS011;30223;17.182;-96.766;2023-03-25T05:27:35;8.32;;;3.58;;
44516;SDS011;30223;17.182;-96.766;2023-03-25T05:30:03;2.55;;;2.35;;
44516;SDS011;30223;17.182;-96.766;2023-03-25T05:32:31;3.58;;;2.38;;
44516;SDS011;30223;17.182;-96.766;2023-03-25T05:35:01;6.43;;;2.78;;
44516;SDS011;30223;17.182;-96.766;2023-03-25T05:37:28;3.03;;;2.17;;
44516;SDS011;30223;17.182;-96.766;2023-03-25T05:39:55;5.38;;;2.65;;
44516;SDS011;30223;17.182;-96.766;2023-03-25T05:42:22;3.03;;;2.22;;
44516;SDS011;30223;17.182;-96.766;2023-03-25T05:44:49;6.15;;;2.60;;
44516;SDS011;30223;17.182;-96.766;2023-03-25T05:47:18;2.67;;;2.17;;
44516;SDS011;30223;17.182;-96.766;2023-03-25T05:49:46;3.72;;;2.70;;
44516;SDS011;30223;17.182;-96.766;2023-03-25T05:52:15;4.20;;;2.33;;
44516;SDS011;30223;17.182;-96.766;2023-03-25T05:54:42;4.32;;;2.40;;
44516;SDS011;30223;17.182;-96.766;2023-03-25T05:57:10;5.18;;;2.97;;
44516;SDS011;30223;17.182;-96.766;2023-03-25T05:59:37;2.85;;;2.05;;
44516;SDS011;30223;17.182;-96.766;2023-03-25T06:02:12;4.53;;;2.15;;
44516;SDS011;30223;17.182;-96.766;2023-03-25T06:04:39;3.63;;;3.33;;
44516;SDS011;30223;17.182;-96.766;2023-03-25T06:07:10;3.40;;;2.42;;
44516;SDS011;30223;17.182;-96.766;2023-03-25T06:09:41;3.20;;;2.63;;
44516;SDS011;30223;17.182;-96.766;2023-03-25T06:12:12;3.42;;;2.20;;
44516;SDS011;30223;17.182;-96.766;2023-03-25T06:14:40;2.63;;;2.03;;
44516;SDS011;30223;17.182;-96.766;2023-03-25T06:17:08;3.00;;;2.00;;
44516;SDS011;30223;17.182;-96.766;2023-03-25T06:19:35;5.72;;;2.83;;
44516;SDS011;30223;17.182;-96.766;2023-03-25T06:22:05;3.28;;;2.47;;
44516;SDS011;30223;17.182;-96.766;2023-03-25T06:24:34;3.95;;;2.50;;
44516;SDS011;30223;17.182;-96.766;2023-03-25T06:27:05;3.97;;;2.38;;
44516;SDS011;30223;17.182;-96.766;2023-03-25T06:29:33;3.20;;;2.05;;
44516;SDS011;30223;17.182;-96.766;2023-03-25T06:32:03;2.95;;;2.28;;
44516;SDS011;30223;17.182;-96.766;2023-03-25T06:34:30;4.38;;;2.03;;
44516;SDS011;30223;17.182;-96.766;2023-03-25T06:36:58;3.08;;;2.78;;
44516;SDS011;30223;17.182;-96.766;2023-03-25T06:39:26;5.57;;;2.05;;
44516;SDS011;30223;17.182;-96.766;2023-03-25T06:41:59;4.10;;;2.45;;
44516;SDS011;30223;17.182;-96.766;2023-03-25T06:44:26;4.20;;;1.80;;
44516;SDS011;30223;17.182;-96.766;2023-03-25T06:46:53;3.85;;;2.92;;
44516;SDS011;30223;17.182;-96.766;2023-03-25T06:49:19;3.17;;;1.95;;
44516;SDS011;30223;17.182;-96.766;2023-03-25T06:51:46;4.18;;;1.90;;
44516;SDS011;30223;17.182;-96.766;2023-03-25T06:54:13;3.08;;;2.33;;
44516;SDS011;30223;17.182;-96.766;2023-03-25T06:56:40;3.58;;;2.00;;
44516;SDS011;30223;17.182;-96.766;2023-03-25T06:59:06;3.13;;;2.15;;
44516;SDS011;30223;17.182;-96.766;2023-03-25T07:01:33;3.03;;;2.40;;
44516;SDS011;30223;17.182;-96.766;2023-03-25T07:04:00;2.97;;;2.13;;
44516;SDS011;30223;17.182;-96.766;2023-03-25T07:06:29;3.25;;;2.38;;
44516;SDS011;30223;17.182;-96.766;2023-03-25T07:08:56;3.15;;;2.22;;
44516;SDS011;30223;17.182;-96.766;2023-03-25T07:11:27;3.90;;;1.90;;
44516;SDS011;30223;17.182;-96.766;2023-03-25T07:13:55;3.03;;;2.35;;
44516;SDS011;30223;17.182;-96.766;2023-03-25T07:16:22;2.97;;;2.05;;
44516;SDS011;30223;17.182;-96.766;2023-03-25T07:18:50;2.85;;;2.00;;
44516;SDS011;30223;17.182;-96.766;2023-03-25T07:21:17;2.70;;;1.90;;
44516;SDS011;30223;17.182;-96.766;2023-03-25T07:23:44;3.10;;;2.80;;
44516;SDS011;30223;17.182;-96.766;2023-03-25T07:26:10;2.00;;;1.70;;
44516;SDS011;30223;17.182;-96.766;2023-03-25T07:28:40;2.35;;;1.83;;
44516;SDS011;30223;17.182;-96.766;2023-03-25T07:31:08;2.38;;;2.10;;
44516;SDS011;30223;17.182;-96.766;2023-03-25T07:33:36;4.40;;;2.35;;
44516;SDS011;30223;17.182;-96.766;2023-03-25T07:36:03;3.20;;;2.47;;
44516;SDS011;30223;17.182;-96.766;2023-03-25T07:38:31;3.70;;;2.42;;
44516;SDS011;30223;17.182;-96.766;2023-03-25T07:40:58;4.68;;;2.50;;
44516;SDS011;30223;17.182;-96.766;2023-03-25T07:43:29;2.50;;;1.77;;
44516;SDS011;30223;17.182;-96.766;2023-03-25T07:45:57;2.58;;;2.33;;
44516;SDS011;30223;17.182;-96.766;2023-03-25T07:48:24;3.13;;;2.15;;
44516;SDS011;30223;17.182;-96.766;2023-03-25T07:50:51;4.57;;;2.65;;
44516;SDS011;30223;17.182;-96.766;2023-03-25T07:53:17;2.63;;;1.70;;
44516;SDS011;30223;17.182;-96.766;2023-03-25T07:55:45;3.22;;;2.13;;
44516;SDS011;30223;17.182;-96.766;2023-03-25T07:58:12;2.92;;;2.17;;
44516;SDS011;30223;17.182;-96.766;2023-03-25T08:00:39;2.95;;;2.33;;
44516;SDS011;30223;17.182;-96.766;2023-03-25T08:03:05;3.42;;;2.75;;
44516;SDS011;30223;17.182;-96.766;2023-03-25T08:05:32;3.85;;;2.03;;
44516;SDS011;30223;17.182;-96.766;2023-03-25T08:08:03;2.13;;;1.88;;
44516;SDS011;30223;17.182;-96.766;2023-03-25T08:10:30;4.45;;;2.00;;
44516;SDS011;30223;17.182;-96.766;2023-03-25T08:12:59;4.03;;;2.30;;
44516;SDS011;30223;17.182;-96.766;2023-03-25T08:15:26;3.25;;;2.33;;
44516;SDS011;30223;17.182;-96.766;2023-03-25T08:17:52;2.70;;;2.05;;
44516;SDS011;30223;17.182;-96.766;2023-03-25T08:20:19;2.95;;;2.28;;
44516;SDS011;30223;17.182;-96.766;2023-03-25T08:22:48;2.85;;;2.13;;
44516;SDS011;30223;17.182;-96.766;2023-03-25T08:25:15;2.95;;;2.28;;
44516;SDS011;30223;17.182;-96.766;2023-03-25T08:27:42;3.30;;;2.45;;
44516;SDS011;30223;17.182;-96.766;2023-03-25T08:30:09;4.15;;;2.80;;
44516;SDS011;30223;17.182;-96.766;2023-03-25T08:32:36;3.58;;;2.40;;
44516;SDS011;30223;17.182;-96.766;2023-03-25T08:35:04;3.47;;;2.30;;
44516;SDS011;30223;17.182;-96.766;2023-03-25T08:37:32;2.20;;;2.00;;
44516;SDS011;30223;17.182;-96.766;2023-03-25T08:40:06;3.60;;;2.30;;
44516;SDS011;30223;17.182;-96.766;2023-03-25T08:42:34;2.53;;;2.08;;
44516;SDS011;30223;17.182;-96.766;2023-03-25T08:45:01;3.75;;;2.85;;
44516;SDS011;30223;17.182;-96.766;2023-03-25T08:47:30;2.92;;;2.53;;
44516;SDS011;30223;17.182;-96.766;2023-03-25T08:49:56;2.92;;;2.22;;
44516;SDS011;30223;17.182;-96.766;2023-03-25T08:52:23;3.08;;;1.83;;
44516;SDS011;30223;17.182;-96.766;2023-03-25T08:54:50;2.75;;;2.28;;
44516;SDS011;30223;17.182;-96.766;2023-03-25T08:57:16;3.00;;;2.10;;
44516;SDS011;30223;17.182;-96.766;2023-03-25T08:59:43;3.25;;;2.45;;
44516;SDS011;30223;17.182;-96.766;2023-03-25T09:02:10;3.65;;;2.38;;
44516;SDS011;30223;17.182;-96.766;2023-03-25T09:04:37;3.80;;;2.92;;
44516;SDS011;30223;17.182;-96.766;2023-03-25T09:07:05;2.45;;;2.13;;
44516;SDS011;30223;17.182;-96.766;2023-03-25T09:09:35;1.95;;;1.85;;
44516;SDS011;30223;17.182;-96.766;2023-03-25T09:12:03;2.28;;;2.05;;
44516;SDS011;30223;17.182;-96.766;2023-03-25T09:14:31;3.28;;;1.95;;
44516;SDS011;30223;17.182;-96.766;2023-03-25T09:16:58;2.75;;;2.33;;
44516;SDS011;30223;17.182;-96.766;2023-03-25T09:19:25;4.13;;;2.13;;
44516;SDS011;30223;17.182;-96.766;2023-03-25T09:21:51;3.13;;;2.47;;
44516;SDS011;30223;17.182;-96.766;2023-03-25T09:24:18;3.47;;;2.28;;
44516;SDS011;30223;17.182;-96.766;2023-03-25T09:26:47;2.80;;;2.35;;
44516;SDS011;30223;17.182;-96.766;2023-03-25T09:29:13;2.55;;;2.08;;
44516;SDS011;30223;17.182;-96.766;2023-03-25T09:31:40;3.80;;;2.47;;
44516;SDS011;30223;17.182;-96.766;2023-03-25T09:34:07;3.45;;;2.20;;
44516;SDS011;30223;17.182;-96.766;2023-03-25T09:36:34;3.50;;;2.42;;
44516;SDS011;30223;17.182;-96.766;2023-03-25T09:39:01;2.83;;;2.22;;
44516;SDS011;30223;17.182;-96.766;2023-03-25T09:41:31;3.35;;;2.55;;
44516;SDS011;30223;17.182;-96.766;2023-03-25T09:46:38;3.60;;;3.03;;
44516;SDS011;30223;17.182;-96.766;2023-03-25T09:49:09;3.03;;;2.72;;
44516;SDS011;30223;17.182;-96.766;2023-03-25T09:51:43;2.70;;;1.98;;
44516;SDS011;30223;17.182;-96.766;2023-03-25T09:56:41;2.08;;;1.70;;
44516;SDS011;30223;17.182;-96.766;2023-03-25T09:59:09;2.78;;;2.50;;
44516;SDS011;30223;17.182;-96.766;2023-03-25T10:07:56;3.80;;;2.28;;
44516;SDS011;30223;17.182;-96.766;2023-03-25T10:13:21;3.28;;;2.40;;
44516;SDS011;30223;17.182;-96.766;2023-03-25T10:15:53;3.08;;;2.72;;
44516;SDS011;30223;17.182;-96.766;2023-03-25T10:18:51;3.17;;;2.03;;
44516;SDS011;30223;17.182;-96.766;2023-03-25T10:21:47;2.85;;;2.28;;
44516;SDS011;30223;17.182;-96.766;2023-03-25T10:27:37;3.17;;;2.65;;
44516;SDS011;30223;17.182;-96.766;2023-03-25T10:30:09;3.83;;;2.55;;
44516;SDS011;30223;17.182;-96.766;2023-03-25T10:32:56;3.83;;;2.33;;
44516;SDS011;30223;17.182;-96.766;2023-03-25T10:35:29;4.97;;;2.97;;
44516;SDS011;30223;17.182;-96.766;2023-03-25T10:38:05;2.55;;;2.15;;
44516;SDS011;30223;17.182;-96.766;2023-03-25T10:40:54;3.10;;;2.08;;
44516;SDS011;30223;17.182;-96.766;2023-03-25T10:43:35;2.13;;;1.92;;
44516;SDS011;30223;17.182;-96.766;2023-03-25T10:48:53;3.25;;;2.08;;
44516;SDS011;30223;17.182;-96.766;2023-03-25T10:51:27;2.33;;;1.83;;
44516;SDS011;30223;17.182;-96.766;2023-03-25T10:53:56;3.63;;;2.33;;
44516;SDS011;30223;17.182;-96.766;2023-03-25T10:56:33;2.78;;;2.10;;
44516;SDS011;30223;17.182;-96.766;2023-03-25T10:59:26;3.80;;;2.85;;
44516;SDS011;30223;17.182;-96.766;2023-03-25T11:01:54;3.08;;;2.47;;
44516;SDS011;30223;17.182;-96.766;2023-03-25T11:04:26;5.97;;;2.63;;
44516;SDS011;30223;17.182;-96.766;2023-03-25T11:06:59;3.75;;;1.90;;
44516;SDS011;30223;17.182;-96.766;2023-03-25T11:09:31;2.88;;;2.10;;
44516;SDS011;30223;17.182;-96.766;2023-03-25T11:12:03;2.85;;;1.60;;
44516;SDS011;30223;17.182;-96.766;2023-03-25T11:14:30;2.83;;;2.28;;
44516;SDS011;30223;17.182;-96.766;2023-03-25T11:17:15;3.15;;;2.53;;
44516;SDS011;30223;17.182;-96.766;2023-03-25T11:22:25;3.30;;;2.33;;
44516;SDS011;30223;17.182;-96.766;2023-03-25T11:24:59;2.88;;;2.22;;
44516;SDS011;30223;17.182;-96.766;2023-03-25T11:27:57;3.60;;;2.72;;
44516;SDS011;30223;17.182;-96.766;2023-03-25T11:30:27;4.57;;;2.92;;
44516;SDS011;30223;17.182;-96.766;2023-03-25T11:32:57;3.70;;;2.33;;
44516;SDS011;30223;17.182;-96.766;2023-03-25T11:35:30;2.90;;;2.35;;
44516;SDS011;30223;17.182;-96.766;2023-03-25T11:38:11;4.18;;;1.98;;
44516;SDS011;30223;17.182;-96.766;2023-03-25T11:40:48;4.10;;;2.60;;
44516;SDS011;30223;17.182;-96.766;2023-03-25T11:43:21;2.92;;;2.15;;
44516;SDS011;30223;17.182;-96.766;2023-03-25T11:45:50;3.08;;;2.35;;
44516;SDS011;30223;17.182;-96.766;2023-03-25T11:48:21;4.28;;;2.28;;
44516;SDS011;30223;17.182;-96.766;2023-03-25T11:50:54;3.40;;;3.05;;
44516;SDS011;30223;17.182;-96.766;2023-03-25T11:53:24;7.47;;;2.63;;
44516;SDS011;30223;17.182;-96.766;2023-03-25T11:56:10;2.78;;;2.13;;
44516;SDS011;30223;17.182;-96.766;2023-03-25T11:58:45;5.85;;;2.65;;
44516;SDS011;30223;17.182;-96.766;2023-03-25T12:01:27;2.90;;;2.22;;
44516;SDS011;30223;17.182;-96.766;2023-03-25T12:06:53;2.80;;;2.10;;
44516;SDS011;30223;17.182;-96.766;2023-03-25T12:09:23;4.72;;;2.83;;
44516;SDS011;30223;17.182;-96.766;2023-03-25T12:19:58;3.05;;;2.30;;
44516;SDS011;30223;17.182;-96.766;2023-03-25T12:22:55;3.05;;;2.30;;
44516;SDS011;30223;17.182;-96.766;2023-03-25T12:28:36;3.67;;;2.40;;
44516;SDS011;30223;17.182;-96.766;2023-03-25T12:37:04;4.80;;;3.10;;
44516;SDS011;30223;17.182;-96.766;2023-03-25T12:42:46;3.80;;;2.80;;
44516;SDS011;30223;17.182;-96.766;2023-03-25T12:45:20;4.35;;;2.63;;
44516;SDS011;30223;17.182;-96.766;2023-03-25T12:48:25;6.22;;;2.40;;
44516;SDS011;30223;17.182;-96.766;2023-03-25T13:08:12;3.00;;;2.15;;
44516;SDS011;30223;17.182;-96.766;2023-03-25T13:10:44;3.85;;;2.67;;
44516;SDS011;30223;17.182;-96.766;2023-03-25T13:13:17;6.05;;;3.55;;
44516;SDS011;30223;17.182;-96.766;2023-03-25T13:16:01;3.58;;;2.22;;
44516;SDS011;30223;17.182;-96.766;2023-03-25T13:18:42;3.10;;;2.63;;
44516;SDS011;30223;17.182;-96.766;2023-03-25T13:21:38;3.58;;;2.90;;
44516;SDS011;30223;17.182;-96.766;2023-03-25T13:24:15;6.22;;;3.15;;
44516;SDS011;30223;17.182;-96.766;2023-03-25T13:27:05;4.07;;;2.65;;
44516;SDS011;30223;17.182;-96.766;2023-03-25T13:29:42;7.35;;;3.53;;
44516;SDS011;30223;17.182;-96.766;2023-03-25T13:32:42;4.50;;;3.70;;
44516;SDS011;30223;17.182;-96.766;2023-03-25T13:35:56;3.53;;;2.63;;
44516;SDS011;30223;17.182;-96.766;2023-03-25T13:38:18;3.50;;;3.00;;
44516;SDS011;30223;17.182;-96.766;2023-03-25T13:40:52;4.28;;;2.97;;
44516;SDS011;30223;17.182;-96.766;2023-03-25T13:43:31;3.70;;;2.40;;
44516;SDS011;30223;17.182;-96.766;2023-03-25T13:46:12;2.83;;;2.25;;
44516;SDS011;30223;17.182;-96.766;2023-03-25T13:51:25;6.72;;;3.13;;
44516;SDS011;30223;17.182;-96.766;2023-03-25T13:53:56;27.13;;;3.58;;
44516;SDS011;30223;17.182;-96.766;2023-03-25T13:59:25;4.70;;;2.78;;
44516;SDS011;30223;17.182;-96.766;2023-03-25T14:04:44;8.10;;;3.25;;
44516;SDS011;30223;17.182;-96.766;2023-03-25T14:07:24;4.68;;;2.90;;
44516;SDS011;30223;17.182;-96.766;2023-03-25T14:12:25;5.57;;;3.00;;
44516;SDS011;30223;17.182;-96.766;2023-03-25T14:15:03;3.55;;;2.50;;
44516;SDS011;30223;17.182;-96.766;2023-03-25T14:17:35;2.92;;;2.35;;
44516;SDS011;30223;17.182;-96.766;2023-03-25T14:20:04;9.00;;;4.18;;
44516;SDS011;30223;17.182;-96.766;2023-03-25T14:22:37;4.88;;;3.25;;
44516;SDS011;30223;17.182;-96.766;2023-03-25T14:25:13;4.18;;;2.95;;
44516;SDS011;30223;17.182;-96.766;2023-03-25T14:27:49;3.08;;;2.50;;
44516;SDS011;30223;17.182;-96.766;2023-03-25T14:32:47;6.22;;;3.20;;
44516;SDS011;30223;17.182;-96.766;2023-03-25T14:43:26;3.95;;;2.55;;
44516;SDS011;30223;17.182;-96.766;2023-03-25T14:48:44;3.90;;;2.22;;
44516;SDS011;30223;17.182;-96.766;2023-03-25T14:53:58;3.90;;;3.50;;
44516;SDS011;30223;17.182;-96.766;2023-03-25T14:56:35;4.65;;;2.90;;
44516;SDS011;30223;17.182;-96.766;2023-03-25T14:59:07;4.57;;;3.92;;
44516;SDS011;30223;17.182;-96.766;2023-03-25T15:01:38;5.28;;;3.63;;
44516;SDS011;30223;17.182;-96.766;2023-03-25T15:04:23;4.47;;;2.80;;
44516;SDS011;30223;17.182;-96.766;2023-03-25T15:07:04;3.97;;;2.53;;
44516;SDS011;30223;17.182;-96.766;2023-03-25T15:09:48;3.72;;;2.67;;
44516;SDS011;30223;17.182;-96.766;2023-03-25T15:12:18;3.75;;;2.85;;
44516;SDS011;30223;17.182;-96.766;2023-03-25T15:14:48;3.17;;;2.40;;
44516;SDS011;30223;17.182;-96.766;2023-03-25T15:17:37;5.97;;;3.20;;
44516;SDS011;30223;17.182;-96.766;2023-03-25T15:22:34;5.28;;;3.63;;
44516;SDS011;30223;17.182;-96.766;2023-03-25T15:25:02;6.30;;;3.45;;
44516;SDS011;30223;17.182;-96.766;2023-03-25T15:30:31;8.32;;;4.10;;
44516;SDS011;30223;17.182;-96.766;2023-03-25T15:38:46;7.20;;;5.68;;
44516;SDS011;30223;17.182;-96.766;2023-03-25T15:55:06;9.32;;;6.45;;
44516;SDS011;30223;17.182;-96.766;2023-03-25T16:00:59;13.27;;;5.95;;
44516;SDS011;30223;17.182;-96.766;2023-03-25T16:03:41;9.57;;;5.80;;
44516;SDS011;30223;17.182;-96.766;2023-03-25T16:06:10;11.57;;;7.05;;
44516;SDS011;30223;17.182;-96.766;2023-03-25T16:08:42;13.10;;;7.03;;
44516;SDS011;30223;17.182;-96.766;2023-03-25T16:11:15;13.05;;;6.75;;
44516;SDS011;30223;17.182;-96.766;2023-03-25T16:14:10;10.73;;;5.88;;
44516;SDS011;30223;17.182;-96.766;2023-03-25T16:16:48;13.60;;;6.75;;
44516;SDS011;30223;17.182;-96.766;2023-03-25T16:19:29;11.07;;;6.35;;
44516;SDS011;30223;17.182;-96.766;2023-03-25T16:22:05;10.02;;;6.68;;
44516;SDS011;30223;17.182;-96.766;2023-03-25T16:24:45;10.93;;;5.93;;
44516;SDS011;30223;17.182;-96.766;2023-03-25T16:27:26;11.82;;;6.72;;
44516;SDS011;30223;17.182;-96.766;2023-03-25T16:29:58;8.82;;;6.93;;
44516;SDS011;30223;17.182;-96.766;2023-03-25T16:32:29;12.90;;;6.35;;
44516;SDS011;30223;17.182;-96.766;2023-03-25T16:34:58;11.88;;;5.97;;
44516;SDS011;30223;17.182;-96.766;2023-03-25T16:37:25;7.97;;;5.75;;
44516;SDS011;30223;17.182;-96.766;2023-03-25T16:39:55;8.25;;;7.45;;
44516;SDS011;30223;17.182;-96.766;2023-03-25T16:42:26;10.68;;;6.47;;
44516;SDS011;30223;17.182;-96.766;2023-03-25T16:44:59;10.90;;;6.50;;
44516;SDS011;30223;17.182;-96.766;2023-03-25T16:47:32;7.47;;;6.35;;
44516;SDS011;30223;17.182;-96.766;2023-03-25T16:49:59;10.93;;;5.28;;
44516;SDS011;30223;17.182;-96.766;2023-03-25T16:52:28;12.70;;;6.70;;
44516;SDS011;30223;17.182;-96.766;2023-03-25T16:57:31;10.18;;;6.28;;
44516;SDS011;30223;17.182;-96.766;2023-03-25T17:00:10;8.88;;;4.93;;
44516;SDS011;30223;17.182;-96.766;2023-03-25T17:02:44;8.43;;;5.63;;
44516;SDS011;30223;17.182;-96.766;2023-03-25T17:05:24;6.72;;;4.80;;
44516;SDS011;30223;17.182;-96.766;2023-03-25T17:07:58;9.02;;;5.53;;
44516;SDS011;30223;17.182;-96.766;2023-03-25T17:10:30;9.15;;;6.65;;
44516;SDS011;30223;17.182;-96.766;2023-03-25T17:13:08;8.45;;;4.90;;
44516;SDS011;30223;17.182;-96.766;2023-03-25T17:15:35;7.38;;;5.10;;
44516;SDS011;30223;17.182;-96.766;2023-03-25T17:18:05;13.30;;;5.55;;
44516;SDS011;30223;17.182;-96.766;2023-03-25T17:20:43;7.95;;;5.13;;
44516;SDS011;30223;17.182;-96.766;2023-03-25T17:34:00;7.82;;;4.03;;
44516;SDS011;30223;17.182;-96.766;2023-03-25T17:36:33;7.53;;;5.25;;
44516;SDS011;30223;17.182;-96.766;2023-03-25T17:39:10;7.68;;;5.05;;
44516;SDS011;30223;17.182;-96.766;2023-03-25T17:41:39;7.38;;;4.55;;